Time;durP1;ratioP1;P1;durP2;ratioP2;P2;SDS_P1;SDS_P2;PMS_P1;PMS_P2;Temp;Humidity;BMP_temperature;BMP_pressure;BME280_temperature;BME280_humidity;BME280_pressure;Samples;Min_cycle;Max_cycle;Signal;HPM_P1;HPM_P2
2022/04/22 00:00:51;;;;;;;17.85;15.98;;;;;;;10.60;74.02;94763.50;5038629;28;20278;-68
2022/04/22 00:03:19;;;;;;;18.20;16.38;;;;;;;10.56;74.39;94759.84;5038307;28;20183;-68
2022/04/22 00:05:47;;;;;;;17.05;15.25;;;;;;;10.55;74.53;94757.47;5038422;28;20197;-68
2022/04/22 00:08:17;;;;;;;17.00;15.35;;;;;;;10.56;73.88;94750.78;5038012;28;20205;-67
2022/04/22 00:13:28;;;;;;;14.60;13.27;;;;;;;10.60;73.38;94746.97;5020588;28;20198;-68
2022/04/22 00:15:55;;;;;;;14.30;12.98;;;;;;;10.61;73.17;94739.47;5037895;28;20187;-67
2022/04/22 00:18:23;;;;;;;13.65;12.35;;;;;;;10.63;73.20;94739.09;5038306;28;20194;-67
2022/04/22 00:20:51;;;;;;;14.45;13.05;;;;;;;10.60;73.84;94733.16;5037819;28;20612;-68
2022/04/22 00:23:20;;;;;;;14.23;12.82;;;;;;;10.55;73.43;94722.41;5020167;28;20658;-67
2022/04/22 00:25:48;;;;;;;14.60;13.15;;;;;;;10.53;73.73;94710.13;5036436;28;20210;-67
2022/04/22 00:28:16;;;;;;;14.75;13.35;;;;;;;10.52;74.05;94719.56;5020604;28;20205;-67
2022/04/22 00:30:47;;;;;;;14.40;13.00;;;;;;;10.53;74.03;94707.38;5037540;28;20638;-67
2022/04/22 00:33:16;;;;;;;14.18;12.75;;;;;;;10.49;74.53;94718.31;5037644;28;20272;-67
2022/04/22 00:35:45;;;;;;;13.57;12.27;;;;;;;10.47;74.18;94723.41;5037726;28;20186;-68
2022/04/22 00:38:14;;;;;;;13.05;11.85;;;;;;;10.47;74.39;94733.66;5036902;28;20198;-68
2022/04/22 00:40:41;;;;;;;13.77;12.57;;;;;;;10.43;75.31;94724.50;5037752;28;20191;-68
2022/04/22 00:43:17;;;;;;;12.45;11.35;;;;;;;10.40;75.73;94727.97;5037472;28;20606;-68
2022/04/22 00:45:49;;;;;;;12.45;11.15;;;;;;;10.38;75.63;94727.53;5037664;28;20182;-68
2022/04/22 00:48:19;;;;;;;12.88;11.68;;;;;;;10.35;75.81;94729.06;5019898;28;20208;-68
2022/04/22 00:50:48;;;;;;;12.93;11.70;;;;;;;10.34;76.07;94719.97;5020109;28;20230;-68
2022/04/22 00:53:16;;;;;;;13.00;11.82;;;;;;;10.33;76.57;94714.84;5037058;28;20179;-67
2022/04/22 00:55:46;;;;;;;12.07;11.07;;;;;;;10.32;76.19;94704.97;5019805;28;20218;-67
2022/04/22 00:58:16;;;;;;;14.05;12.88;;;;;;;10.29;76.04;94695.47;5037369;28;20431;-67
2022/04/22 01:00:43;;;;;;;14.63;13.23;;;;;;;10.28;76.47;94690.31;5019655;28;20194;-67
2022/04/22 01:03:13;;;;;;;14.80;13.02;;;;;;;10.23;76.00;94680.31;5020173;28;20203;-67
2022/04/22 01:11:27;;;;;;;13.05;11.95;;;;;;;10.18;76.28;94679.81;5036307;28;20233;-67
2022/04/22 01:13:54;;;;;;;13.25;12.05;;;;;;;10.17;76.22;94667.19;5019673;28;20226;-67
2022/04/22 01:16:23;;;;;;;13.23;11.95;;;;;;;10.20;75.52;94660.94;5036803;28;20652;-68
2022/04/22 01:18:53;;;;;;;13.70;12.50;;;;;;;10.21;75.23;94651.53;5036867;28;20194;-67
2022/04/22 01:21:21;;;;;;;11.50;10.52;;;;;;;10.24;74.88;94646.09;5037069;28;20186;-67
2022/04/22 01:23:50;;;;;;;10.23;9.32;;;;;;;10.26;74.34;94638.28;5019546;28;20242;-66
2022/04/22 01:26:18;;;;;;;10.35;9.35;;;;;;;10.29;74.27;94636.78;5036686;28;20179;-67
2022/04/22 01:28:48;;;;;;;10.77;9.77;;;;;;;10.25;74.73;94630.38;5036568;28;20204;-66
2022/04/22 01:31:19;;;;;;;10.80;9.90;;;;;;;10.23;74.81;94613.38;5036559;28;20305;-66
2022/04/22 01:33:49;;;;;;;11.80;10.63;;;;;;;10.21;75.39;94618.47;5036712;28;20573;-66
2022/04/22 01:36:18;;;;;;;11.93;10.90;;;;;;;10.19;75.70;94615.25;5019500;28;20539;-66
2022/04/22 01:38:50;;;;;;;12.18;11.07;;;;;;;10.15;76.22;94617.16;5036664;28;20191;-66
2022/04/22 01:41:21;;;;;;;12.20;11.20;;;;;;;10.12;76.55;94615.91;5036697;28;20186;-66
2022/04/22 01:43:49;;;;;;;12.18;11.10;;;;;;;10.05;76.95;94618.50;5035347;28;20198;-66
2022/04/22 01:46:18;;;;;;;11.52;10.35;;;;;;;10.01;77.09;94623.94;5019157;28;20534;-66
2022/04/22 01:48:46;;;;;;;11.98;10.93;;;;;;;9.99;77.51;94629.03;5036654;28;20198;-67
2022/04/22 01:51:16;;;;;;;11.30;10.20;;;;;;;9.98;77.36;94643.13;5018662;28;20225;-67
2022/04/22 01:53:44;;;;;;;12.23;11.13;;;;;;;9.99;76.70;94637.28;5035265;28;20257;-66
2022/04/22 01:56:13;;;;;;;12.55;11.40;;;;;;;10.04;76.87;94649.97;5018806;28;20543;-66
2022/04/22 01:58:41;;;;;;;11.43;10.32;;;;;;;10.06;76.40;94651.22;5019089;28;20201;-66
2022/04/22 02:01:09;;;;;;;10.77;9.88;;;;;;;10.07;76.09;94649.25;5035457;28;20198;-67
2022/04/22 02:03:40;;;;;;;10.25;9.27;;;;;;;10.09;75.47;94668.97;5019136;28;20190;-66
2022/04/22 02:06:07;;;;;;;9.77;8.98;;;;;;;10.10;75.28;94670.59;5034923;28;20183;-66
2022/04/22 02:08:36;;;;;;;9.80;8.85;;;;;;;10.11;74.83;94677.69;5035830;28;20214;-66
2022/04/22 02:11:05;;;;;;;8.90;8.20;;;;;;;10.11;74.50;94680.44;5035705;28;20314;-67
2022/04/22 02:13:36;;;;;;;9.10;8.20;;;;;;;10.11;74.18;94683.19;5018736;28;20206;-67
2022/04/22 02:16:05;;;;;;;8.77;8.05;;;;;;;10.09;73.68;94680.81;5018447;28;20293;-67
2022/04/22 02:18:36;;;;;;;8.82;8.02;;;;;;;10.06;74.79;94681.53;5036020;28;20234;-67
2022/04/22 02:21:05;;;;;;;8.90;7.97;;;;;;;10.00;75.50;94677.44;5018687;28;20197;-67
2022/04/22 02:23:33;;;;;;;9.05;8.30;;;;;;;10.02;74.80;94666.06;5018349;28;20230;-67
2022/04/22 02:26:00;;;;;;;9.60;8.48;;;;;;;10.05;74.57;94660.63;5018409;28;20199;-67
2022/04/22 02:28:32;;;;;;;9.45;8.50;;;;;;;10.04;74.21;94653.53;5018292;28;20205;-67
2022/04/22 02:31:04;;;;;;;9.05;8.25;;;;;;;9.99;74.16;94645.56;5018546;28;20238;-68
2022/04/22 02:33:33;;;;;;;9.43;8.10;;;;;;;9.97;74.52;94636.03;5035748;28;20194;-68
2022/04/22 02:36:00;;;;;;;10.13;9.13;;;;;;;9.92;74.50;94625.31;5017903;28;20214;-71
2022/04/22 02:38:28;;;;;;;13.38;10.57;;;;;;;9.87;74.94;94634.63;5035626;28;20260;-67
2022/04/22 02:46:28;;;;;;;13.60;12.20;;;;;;;9.84;75.23;94641.69;5017816;28;20190;-67
2022/04/22 02:48:58;;;;;;;13.02;11.65;;;;;;;9.82;76.14;94645.94;5034570;28;20200;-67
2022/04/22 02:51:26;;;;;;;14.88;13.48;;;;;;;9.79;75.81;94646.66;5018162;28;20230;-67
2022/04/22 02:53:54;;;;;;;15.27;13.73;;;;;;;9.79;75.70;94643.91;5034449;28;20208;-67
2022/04/22 02:56:23;;;;;;;14.63;13.32;;;;;;;9.77;76.31;94637.97;5035319;28;20489;-67
2022/04/22 02:58:51;;;;;;;14.75;13.45;;;;;;;9.75;76.87;94643.81;5035445;28;20190;-67
2022/04/22 03:01:19;;;;;;;15.40;13.98;;;;;;;9.76;76.92;94650.13;5035396;28;20217;-67
2022/04/22 03:03:48;;;;;;;14.25;12.85;;;;;;;9.74;76.46;94631.22;5017645;28;20198;-68
2022/04/22 03:06:16;;;;;;;14.77;13.30;;;;;;;9.74;76.64;94633.97;5035276;28;20186;-67
2022/04/22 03:08:44;;;;;;;14.43;13.23;;;;;;;9.76;77.29;94636.34;5017279;28;20206;-67
2022/04/22 03:11:20;;;;;;;14.05;12.77;;;;;;;9.77;76.65;94647.03;5034319;28;20300;-67
2022/04/22 03:13:49;;;;;;;14.05;12.85;;;;;;;9.82;76.43;94645.94;5034891;28;20610;-67
2022/04/22 03:16:19;;;;;;;13.98;12.77;;;;;;;9.80;76.50;94640.81;5017809;28;20194;-67
2022/04/22 03:18:49;;;;;;;15.32;13.75;;;;;;;9.80;76.23;94648.25;5024448;28;20208;-67
2022/04/22 03:21:17;;;;;;;13.63;12.43;;;;;;;9.79;77.01;94658.47;5040949;28;20594;-67
2022/04/22 03:23:45;;;;;;;13.23;11.93;;;;;;;9.78;76.96;94669.84;5041306;28;20581;-67
2022/04/22 03:26:13;;;;;;;13.55;12.25;;;;;;;9.76;76.83;94663.88;5041706;28;20491;-67
2022/04/22 03:28:41;;;;;;;13.38;12.18;;;;;;;9.75;77.51;94676.06;5041614;28;20197;-67
2022/04/22 03:31:09;;;;;;;13.88;12.63;;;;;;;9.76;77.92;94669.41;5041556;28;20206;-67
2022/04/22 03:33:37;;;;;;;13.35;12.13;;;;;;;9.76;77.41;94666.63;5024214;28;20209;-67
2022/04/22 03:36:06;;;;;;;12.68;11.57;;;;;;;9.77;77.79;94671.00;5023953;28;20208;-68
2022/04/22 03:38:33;;;;;;;13.27;12.07;;;;;;;9.76;78.29;94659.19;5040642;28;20202;-68
2022/04/22 03:41:01;;;;;;;13.73;12.45;;;;;;;9.76;77.83;94670.19;5041523;28;20182;-68
2022/04/22 03:43:29;;;;;;;13.60;12.45;;;;;;;9.77;77.59;94682.03;5024089;28;20207;-68
2022/04/22 03:45:56;;;;;;;13.15;12.05;;;;;;;9.79;78.22;94676.94;5024026;28;20186;-68
2022/04/22 03:48:24;;;;;;;14.55;13.35;;;;;;;9.80;77.82;94671.09;5040586;28;20202;-68
2022/04/22 03:50:54;;;;;;;13.85;12.55;;;;;;;9.83;77.06;94675.06;5024233;28;20213;-68
2022/04/22 03:53:24;;;;;;;13.10;12.00;;;;;;;9.81;76.99;94671.91;5041535;28;20190;-67
2022/04/22 03:55:53;;;;;;;12.63;11.32;;;;;;;9.81;76.42;94666.38;5041513;28;20187;-68
2022/04/22 03:58:20;;;;;;;12.35;11.20;;;;;;;9.78;76.79;94675.34;5024106;28;20191;-68
2022/04/22 04:00:48;;;;;;;12.35;11.32;;;;;;;9.76;77.57;94680.41;5041143;28;20229;-68
2022/04/22 04:03:18;;;;;;;12.90;11.77;;;;;;;9.76;77.25;94675.69;5040490;28;20209;-68
2022/04/22 04:05:50;;;;;;;13.10;11.85;;;;;;;9.80;76.79;94684.03;5041335;28;20313;-67
2022/04/22 04:08:20;;;;;;;15.75;14.35;;;;;;;9.80;76.71;94678.53;5023891;28;20202;-67
2022/04/22 04:16:28;;;;;;;15.98;14.57;;;;;;;9.79;76.84;94657.66;4991937;28;20202;-67
2022/04/22 04:23:14;;;;;;;16.25;14.85;;;;;;;9.76;77.61;94656.41;5023816;28;20202;-67
2022/04/22 04:24:31;;;;;;;12.32;11.30;;;;;;;9.74;77.54;94661.50;5026448;28;20233;-68
2022/04/22 04:26:59;;;;;;;12.20;11.13;;;;;;;9.74;77.27;94653.25;5040328;28;20209;-68
2022/04/22 04:29:27;;;;;;;13.02;11.70;;;;;;;9.75;76.87;94659.53;5037996;28;20222;-66
2022/04/22 04:31:55;;;;;;;12.32;11.30;;;;;;;9.74;77.09;94671.72;5020812;28;20392;-68
2022/04/22 04:34:24;;;;;;;12.70;11.50;;;;;;;9.74;77.04;94666.22;5037915;28;20186;-68
2022/04/22 04:36:52;;;;;;;11.30;10.30;;;;;;;9.75;77.00;94654.03;5036937;28;20618;-68
2022/04/22 04:39:20;;;;;;;10.95;9.95;;;;;;;9.77;77.24;94655.28;5037899;28;20189;-67
2022/04/22 04:41:49;;;;;;;10.38;9.48;;;;;;;9.78;77.27;94653.31;5037618;28;20587;-68
2022/04/22 04:44:19;;;;;;;11.68;9.73;;;;;;;9.76;76.96;94655.63;5020228;28;20268;-66
2022/04/22 04:46:48;;;;;;;10.73;9.82;;;;;;;9.75;76.91;94643.81;5020922;28;20537;-68
2022/04/22 04:49:16;;;;;;;10.50;9.50;;;;;;;9.80;76.63;94662.00;5021296;28;20199;-69
2022/04/22 04:51:44;;;;;;;10.32;9.40;;;;;;;9.79;77.17;94657.66;5037833;28;20202;-67
2022/04/22 04:54:12;;;;;;;11.18;10.07;;;;;;;9.77;78.47;94649.78;5037893;28;20450;-71
2022/04/22 04:56:43;;;;;;;10.15;9.25;;;;;;;9.78;78.48;94653.31;5037610;28;20198;-70
2022/04/22 04:59:13;;;;;;;10.52;9.48;;;;;;;9.78;78.59;94648.63;5004564;28;20194;-69
2022/04/22 05:01:43;;;;;;;10.15;8.88;;;;;;;9.81;78.59;94658.91;5021126;28;20634;-69
2022/04/22 05:04:12;;;;;;;10.75;9.80;;;;;;;9.81;78.42;94644.34;5037433;28;20616;-67
2022/04/22 05:06:40;;;;;;;11.73;10.75;;;;;;;9.78;78.47;94623.03;5037589;28;20201;-72
2022/04/22 05:09:08;;;;;;;10.32;9.43;;;;;;;9.84;78.55;94636.16;5038285;28;20194;-69
2022/04/22 05:11:35;;;;;;;11.32;10.23;;;;;;;9.85;78.33;94623.19;5021091;28;20226;-68
2022/04/22 05:14:04;;;;;;;9.73;8.82;;;;;;;9.84;78.43;94622.41;5036977;28;20209;-68
2022/04/22 05:16:34;;;;;;;11.02;10.02;;;;;;;9.85;78.69;94612.19;5020855;28;20610;-67
2022/04/22 05:19:04;;;;;;;10.80;9.88;;;;;;;9.85;77.54;94601.16;5037485;28;20224;-66
2022/04/22 05:21:32;;;;;;;10.65;9.68;;;;;;;9.91;76.88;94607.97;5037597;28;20201;-66
2022/04/22 05:23:59;;;;;;;10.52;9.50;;;;;;;9.89;76.71;94578.03;5019652;28;20238;-67
2022/04/22 05:26:27;;;;;;;10.98;9.98;;;;;;;9.89;76.11;94571.72;5019637;28;20206;-66
2022/04/22 05:28:55;;;;;;;10.70;9.80;;;;;;;9.93;76.54;94567.09;5020553;28;20198;-67
2022/04/22 05:34:11;;;;;;;13.75;12.35;;;;;;;9.93;76.54;94541.50;5038351;28;20261;-67
2022/04/22 05:36:42;;;;;;;13.70;12.30;;;;;;;9.92;76.26;94524.19;5019573;28;20202;-67
2022/04/22 05:39:10;;;;;;;15.82;14.23;;;;;;;9.92;76.76;94502.16;5019891;28;20229;-67
2022/04/22 05:41:38;;;;;;;13.35;12.10;;;;;;;9.93;76.25;94494.69;5036109;28;20202;-67
2022/04/22 05:44:05;;;;;;;13.10;11.88;;;;;;;9.94;76.19;94486.03;5037132;28;20514;-68
2022/04/22 05:46:33;;;;;;;12.88;11.82;;;;;;;10.02;76.10;94478.72;5036777;28;20183;-66
2022/04/22 05:49:01;;;;;;;12.30;11.10;;;;;;;10.07;75.68;94462.69;5035360;28;20611;-66
2022/04/22 05:51:32;;;;;;;11.55;10.43;;;;;;;10.12;75.56;94469.84;5019063;28;20202;-66
2022/04/22 05:53:58;;;;;;;11.27;10.20;;;;;;;10.13;74.93;94457.69;5019452;28;20202;-66
2022/04/22 05:56:27;;;;;;;9.93;9.02;;;;;;;10.12;74.27;94475.38;5036154;28;20201;-66
2022/04/22 05:58:55;;;;;;;9.30;8.60;;;;;;;10.18;74.24;94473.13;5019320;28;20190;-66
2022/04/22 06:01:23;;;;;;;9.48;8.68;;;;;;;10.19;73.51;94458.19;5019380;28;20190;-66
2022/04/22 06:03:51;;;;;;;9.38;8.52;;;;;;;10.16;73.73;94461.66;5036363;28;20198;-66
2022/04/22 06:06:19;;;;;;;10.40;9.40;;;;;;;10.17;73.48;94466.00;5035473;28;20199;-66
2022/04/22 06:11:35;;;;;;;9.27;8.55;;;;;;;10.21;72.98;94459.41;5035882;28;20253;-65
2022/04/22 06:14:02;;;;;;;10.32;9.40;;;;;;;10.25;72.43;94465.00;5018813;28;20207;-66
2022/04/22 06:16:31;;;;;;;9.07;8.38;;;;;;;10.30;72.83;94448.97;5018740;28;20195;-65
2022/04/22 06:18:59;;;;;;;10.63;9.63;;;;;;;10.23;72.13;94459.03;5036324;28;20194;-66
2022/04/22 06:21:29;;;;;;;9.35;8.43;;;;;;;10.18;72.13;94451.09;5036170;28;20513;-65
2022/04/22 06:23:57;;;;;;;9.23;8.43;;;;;;;10.17;72.42;94455.81;5035777;28;20239;-65
2022/04/22 06:26:25;;;;;;;9.48;8.68;;;;;;;10.23;71.84;94467.31;5018518;28;20202;-66
2022/04/22 06:28:53;;;;;;;8.60;7.82;;;;;;;10.29;72.21;94452.09;5018775;28;20195;-66
2022/04/22 06:31:22;;;;;;;9.98;9.15;;;;;;;10.34;71.86;94457.31;5018717;28;20207;-66
2022/04/22 06:33:51;;;;;;;9.90;8.85;;;;;;;10.39;71.85;94461.75;5034389;28;20206;-66
2022/04/22 06:36:18;;;;;;;10.15;9.25;;;;;;;10.40;72.06;94461.38;5035414;28;20186;-66
2022/04/22 06:38:47;;;;;;;10.15;8.98;;;;;;;10.47;72.10;94474.47;5035419;28;20201;-65
2022/04/22 06:46:55;;;;;;;10.55;8.98;;;;;;;10.51;71.83;94473.38;5034768;28;20633;-65
2022/04/22 06:49:24;;;;;;;11.43;10.43;;;;;;;10.55;73.06;94473.44;5018209;28;20206;-65
2022/04/22 06:51:55;;;;;;;11.68;10.60;;;;;;;10.53;72.27;94471.06;5017476;28;20218;-67
2022/04/22 06:54:26;;;;;;;11.05;9.98;;;;;;;10.54;71.90;94456.09;5036293;28;20186;-67
2022/04/22 06:56:56;;;;;;;10.85;9.95;;;;;;;10.62;71.78;94437.72;5035549;28;20693;-66
2022/04/22 06:59:24;;;;;;;16.48;15.07;;;;;;;10.69;71.26;94440.59;5018871;28;20206;-67
2022/04/22 07:01:55;;;;;;;20.98;19.17;;;;;;;10.72;70.59;94434.34;5035983;28;20610;-66
2022/04/22 07:04:24;;;;;;;14.27;12.77;;;;;;;10.67;70.19;94423.59;5019068;28;20202;-66
2022/04/22 07:06:53;;;;;;;18.02;11.73;;;;;;;10.69;71.11;94426.81;5036142;28;20260;-67
2022/04/22 07:09:21;;;;;;;9.02;8.10;;;;;;;10.69;70.28;94439.81;5035851;28;20174;-66
2022/04/22 07:11:51;;;;;;;8.90;8.05;;;;;;;10.77;71.06;94427.72;5018050;28;20228;-67
2022/04/22 07:14:21;;;;;;;7.85;7.05;;;;;;;10.76;69.57;94448.97;5018865;28;20206;-66
2022/04/22 07:16:49;;;;;;;8.85;7.72;;;;;;;10.79;69.13;94412.38;5035714;28;20201;-68
2022/04/22 07:19:18;;;;;;;10.75;8.00;;;;;;;10.80;68.94;94433.28;5035699;28;20198;-68
2022/04/22 07:21:45;;;;;;;9.07;7.35;;;;;;;10.95;69.30;94422.47;5036538;28;20613;-65
2022/04/22 07:24:16;;;;;;;8.52;7.80;;;;;;;11.00;68.75;94430.41;5035355;28;20187;-66
2022/04/22 07:26:45;;;;;;;9.05;8.15;;;;;;;11.04;69.42;94426.56;5018756;28;20293;-64
2022/04/22 07:29:18;;;;;;;8.48;7.68;;;;;;;11.17;70.25;94426.34;5018076;28;20274;-63
2022/04/22 07:31:49;;;;;;;7.95;7.15;;;;;;;11.27;68.78;94440.31;5018018;28;20191;-64
2022/04/22 07:34:17;;;;;;;7.55;6.75;;;;;;;11.39;68.57;94430.22;5033999;28;20202;-62
2022/04/22 07:36:47;;;;;;;7.45;6.75;;;;;;;11.50;69.27;94429.16;5017586;28;20206;-69
2022/04/22 07:39:15;;;;;;;7.53;6.72;;;;;;;11.60;68.23;94429.69;5018272;28;20202;-68
2022/04/22 07:41:43;;;;;;;7.88;6.88;;;;;;;11.68;68.37;94434.94;5035112;28;20202;-65
2022/04/22 07:47:08;;;;;;;7.60;6.90;;;;;;;11.85;67.22;94424.53;5035506;28;20167;-69
2022/04/22 07:49:36;;;;;;;8.50;7.70;;;;;;;11.92;67.14;94411.59;5035254;28;20182;-68
2022/04/22 07:52:05;;;;;;;7.90;7.13;;;;;;;12.01;67.61;94419.56;5017482;28;20195;-67
2022/04/22 07:54:33;;;;;;;7.72;7.03;;;;;;;12.10;66.85;94433.91;5017875;28;20535;-64
2022/04/22 07:57:00;;;;;;;9.57;8.68;;;;;;;12.18;66.46;94426.47;5034797;28;20202;-64
2022/04/22 07:59:30;;;;;;;8.15;7.55;;;;;;;12.23;65.82;94432.44;5035054;28;20202;-66
2022/04/22 08:02:00;;;;;;;8.25;7.20;;;;;;;12.23;66.79;94449.03;5017964;28;20203;-65
2022/04/22 08:04:29;;;;;;;7.18;6.57;;;;;;;12.30;66.14;94456.59;5019635;28;20206;-66
2022/04/22 08:06:57;;;;;;;6.88;6.22;;;;;;;12.37;65.23;94450.38;5038646;28;20265;-66
2022/04/22 08:09:25;;;;;;;6.72;6.13;;;;;;;12.45;65.15;94463.88;5039488;28;20619;-66
2022/04/22 08:11:54;;;;;;;6.22;5.72;;;;;;;12.55;65.12;94473.47;5022013;28;20202;-66
2022/04/22 08:14:23;;;;;;;6.95;6.10;;;;;;;12.65;65.92;94467.25;5022384;28;20199;-72
2022/04/22 08:16:51;;;;;;;6.97;6.22;;;;;;;12.74;65.16;94453.09;5022431;28;20577;-75
2022/04/22 08:19:20;;;;;;;5.93;5.25;;;;;;;12.84;64.91;94427.47;5037196;28;20265;-71
2022/04/22 08:21:47;;;;;;;8.98;5.90;;;;;;;12.97;63.46;94434.31;5037070;28;20218;-70
2022/04/22 08:24:15;;;;;;;6.78;6.18;;;;;;;13.06;64.44;94428.44;5036755;28;20201;-71
2022/04/22 08:26:43;;;;;;;6.65;6.05;;;;;;;13.11;64.23;94424.50;5020913;28;20206;-71
2022/04/22 08:29:11;;;;;;;6.65;5.95;;;;;;;13.17;64.31;94428.53;5020507;28;20205;-71
2022/04/22 08:31:40;;;;;;;6.18;5.57;;;;;;;13.22;64.18;94428.19;5037151;28;20202;-72
2022/04/22 08:34:07;;;;;;;9.82;6.28;;;;;;;13.31;63.38;94425.88;5037525;28;20217;-71
2022/04/22 08:36:37;;;;;;;7.80;6.38;;;;;;;13.36;63.93;94408.91;5038337;28;20187;-70
2022/04/22 08:39:06;;;;;;;6.82;6.15;;;;;;;13.39;63.17;94402.56;5038012;28;20197;-71
2022/04/22 08:41:36;;;;;;;6.78;6.07;;;;;;;13.47;64.96;94395.09;5037778;28;20182;-70
2022/04/22 08:44:03;;;;;;;7.93;6.35;;;;;;;13.64;66.28;94396.38;5037621;28;20257;-71
2022/04/22 08:52:12;;;;;;;6.47;5.88;;;;;;;14.09;62.49;94391.38;5012049;28;20214;-71
2022/04/22 08:54:45;;;;;;;6.18;5.60;;;;;;;14.24;61.50;94381.94;5037595;28;20226;-71
2022/04/22 08:57:13;;;;;;;6.70;5.93;;;;;;;14.34;62.40;94386.72;5020070;28;20206;-71
2022/04/22 08:59:42;;;;;;;6.97;6.00;;;;;;;14.45;61.88;94383.94;5036632;28;20194;-72
2022/04/22 09:02:09;;;;;;;6.80;5.22;;;;;;;14.48;61.25;94376.81;5019970;28;20293;-71
2022/04/22 09:04:38;;;;;;;7.05;5.93;;;;;;;14.49;61.46;94358.97;5037456;28;20256;-71
2022/04/22 09:07:06;;;;;;;7.05;5.72;;;;;;;14.41;59.90;94367.28;5037604;28;20201;-69
2022/04/22 09:09:36;;;;;;;5.97;5.40;;;;;;;14.36;59.95;94355.81;5020489;28;20212;-70
2022/04/22 09:12:11;;;;;;;6.18;5.57;;;;;;;14.28;59.56;94362.53;5019897;28;20202;-67
2022/04/22 09:14:45;;;;;;;7.10;5.93;;;;;;;14.34;61.62;94361.75;5037131;28;20194;-67
2022/04/22 09:17:18;;;;;;;8.60;5.53;;;;;;;14.43;61.01;94359.38;5020306;28;20198;-70
2022/04/22 09:19:47;;;;;;;5.85;5.35;;;;;;;14.60;60.84;94357.06;5019766;28;20205;-67
2022/04/22 09:22:19;;;;;;;7.65;5.65;;;;;;;14.80;61.88;94352.69;5033719;28;20659;-71
2022/04/22 09:24:50;;;;;;;6.85;5.50;;;;;;;14.94;60.05;94354.66;5001200;28;20213;-70
2022/04/22 09:27:21;;;;;;;6.38;5.75;;;;;;;15.18;60.41;94353.03;5019642;28;20213;-74
2022/04/22 09:29:53;;;;;;;9.07;5.80;;;;;;;15.36;59.35;94358.56;5000179;28;20238;-73
2022/04/22 09:32:27;;;;;;;6.15;5.55;;;;;;;15.57;58.10;94358.47;4999630;28;20290;-73
2022/04/22 09:34:57;;;;;;;6.05;5.45;;;;;;;15.70;57.22;94353.31;5000023;28;20202;-72
2022/04/22 09:42:57;;;;;;;8.95;5.25;;;;;;;15.69;58.37;94340.63;4921778;29;20304;-74
2022/04/22 09:45:41;;;;;;;7.53;5.53;;;;;;;15.67;58.58;94343.00;4923165;29;20213;-73
2022/04/22 09:48:14;;;;;;;7.05;5.30;;;;;;;15.58;58.17;94337.84;4924595;29;20212;-71
2022/04/22 09:50:45;;;;;;;6.13;5.40;;;;;;;15.66;57.28;94338.63;4938572;29;20213;-67
2022/04/22 09:53:16;;;;;;;6.25;5.65;;;;;;;15.68;56.79;94313.22;4937317;29;20226;-66
2022/04/22 09:55:54;;;;;;;6.18;5.57;;;;;;;15.62;56.83;94335.06;4937396;29;20209;-70
2022/04/22 09:58:23;;;;;;;7.55;5.65;;;;;;;15.48;56.71;94315.66;4937427;29;20221;-73
2022/04/22 10:01:04;;;;;;;6.22;5.63;;;;;;;15.60;57.58;94304.09;4937242;29;20529;-71
2022/04/22 10:03:33;;;;;;;6.00;5.40;;;;;;;15.74;56.88;94297.69;4937248;29;20190;-71
2022/04/22 10:06:01;;;;;;;7.07;4.95;;;;;;;15.87;57.23;94298.84;4936957;29;20233;-71
2022/04/22 10:08:32;;;;;;;6.50;5.07;;;;;;;15.91;56.18;94296.03;4921448;29;20650;-70
2022/04/22 10:11:03;;;;;;;7.53;5.40;;;;;;;16.04;56.85;94299.91;4921222;29;20676;-72
2022/04/22 10:13:37;;;;;;;5.55;5.07;;;;;;;16.10;56.35;94282.38;4937095;29;20650;-72
2022/04/22 10:16:04;;;;;;;6.55;5.82;;;;;;;16.22;56.13;94269.19;4937017;29;20194;-73
2022/04/22 10:18:34;;;;;;;5.57;5.05;;;;;;;16.28;55.22;94282.28;4996209;28;20206;-70
2022/04/22 10:21:02;;;;;;;7.75;5.20;;;;;;;16.37;56.18;94267.88;5017470;28;20190;-69
2022/04/22 10:23:31;;;;;;;8.68;5.78;;;;;;;16.40;56.39;94257.94;5014047;28;20234;-69
2022/04/22 10:26:02;;;;;;;6.55;5.45;;;;;;;16.12;55.41;94280.00;5036144;28;20218;-71
2022/04/22 10:28:31;;;;;;;5.50;5.00;;;;;;;16.12;56.62;94268.88;5036091;28;20194;-70
2022/04/22 10:31:01;;;;;;;6.53;5.43;;;;;;;16.09;56.01;94266.13;5020013;28;20198;-73
2022/04/22 10:33:29;;;;;;;6.63;5.95;;;;;;;16.33;57.22;94259.56;5017927;28;20435;-68
2022/04/22 10:35:59;;;;;;;7.03;5.30;;;;;;;16.55;56.55;94262.16;5036147;28;20202;-68
2022/04/22 10:38:34;;;;;;;5.30;4.90;;;;;;;16.58;56.15;94245.44;5018520;28;20191;-68
2022/04/22 10:41:06;;;;;;;6.60;5.63;;;;;;;16.69;56.21;94264.84;5035853;28;20186;-69
2022/04/22 10:43:34;;;;;;;7.07;5.15;;;;;;;16.84;55.16;94254.38;5035775;28;20186;-69
2022/04/22 10:49:14;;;;;;;12.00;5.40;;;;;;;17.09;54.58;94251.34;5035638;28;20225;-71
2022/04/22 10:52:09;;;;;;;4.97;4.57;;;;;;;17.16;55.66;94248.47;5001547;28;20600;-71
2022/04/22 10:55:17;;;;;;;5.50;5.00;;;;;;;17.53;56.62;94246.84;5035954;28;20206;-71
2022/04/22 10:57:50;;;;;;;6.25;5.13;;;;;;;17.53;52.93;94241.25;5033204;28;20182;-71
2022/04/22 11:00:29;;;;;;;6.85;6.10;;;;;;;17.64;53.92;94258.66;5018536;28;20267;-70
2022/04/22 11:03:13;;;;;;;7.68;5.78;;;;;;;17.58;54.12;94243.59;5036385;28;20182;-69
2022/04/22 11:05:46;;;;;;;7.07;5.22;;;;;;;17.66;52.08;94222.00;5019166;28;20206;-71
2022/04/22 11:08:31;;;;;;;6.00;5.43;;;;;;;17.66;53.31;94230.34;5035249;28;20187;-70
2022/04/22 11:11:06;;;;;;;7.13;5.30;;;;;;;17.81;51.90;94240.13;5018849;28;20194;-70
2022/04/22 11:13:45;;;;;;;7.72;5.28;;;;;;;17.88;51.76;94230.88;5020281;28;20225;-70
2022/04/22 11:16:29;;;;;;;6.57;5.70;;;;;;;17.93;50.60;94213.66;5021686;28;20275;-67
2022/04/22 11:19:25;;;;;;;7.03;5.55;;;;;;;18.04;50.30;94197.56;5036225;28;20280;-71
2022/04/22 11:21:58;;;;;;;7.28;5.50;;;;;;;18.18;51.72;94216.06;5028601;28;20214;-67
2022/04/22 11:24:31;;;;;;;8.23;5.35;;;;;;;18.03;49.31;94209.94;5017776;28;20265;-66
2022/04/22 11:27:08;;;;;;;7.72;5.05;;;;;;;17.76;50.46;94215.50;5018032;28;20202;-69
2022/04/22 11:29:37;;;;;;;5.88;5.07;;;;;;;17.57;51.10;94211.34;5035668;28;20198;-67
2022/04/22 11:32:12;;;;;;;8.25;5.75;;;;;;;17.52;51.82;94214.59;5034479;28;20205;-67
2022/04/22 11:35:17;;;;;;;20.83;12.45;;;;;;;17.46;50.92;94191.19;5017113;28;20225;-66
2022/04/22 11:37:44;;;;;;;14.52;7.97;;;;;;;17.46;50.83;94185.59;4990896;28;20205;-65
2022/04/22 11:40:19;;;;;;;8.93;7.07;;;;;;;17.48;50.12;94191.56;5021552;28;20208;-66
2022/04/22 11:42:49;;;;;;;14.15;7.85;;;;;;;17.62;51.84;94187.78;5039030;28;20197;-66
2022/04/22 11:45:22;;;;;;;5.35;4.78;;;;;;;17.76;49.68;94165.31;5021604;28;20225;-65
2022/04/22 11:47:50;;;;;;;10.60;8.05;;;;;;;17.95;50.88;94172.19;5039032;28;20182;-65
2022/04/22 11:50:22;;;;;;;10.07;5.10;;;;;;;18.22;51.61;94164.56;5038700;28;20195;-65
2022/04/22 11:52:57;;;;;;;5.20;4.70;;;;;;;18.27;49.50;94154.94;5022292;28;20252;-65
2022/04/22 11:55:26;;;;;;;9.05;5.85;;;;;;;18.22;49.81;94156.19;5038601;28;20202;-65
2022/04/22 11:57:53;;;;;;;5.90;5.35;;;;;;;18.40;52.10;94155.09;5038281;28;20203;-65
2022/04/22 12:05:58;;;;;;;4.97;4.32;;;;;;;18.77;49.28;94154.06;5037383;28;20190;-65
2022/04/22 12:08:25;;;;;;;5.70;4.80;;;;;;;18.81;48.79;94154.81;5021040;28;20201;-65
2022/04/22 12:10:53;;;;;;;5.40;4.90;;;;;;;18.88;48.50;94151.06;5020890;28;20624;-65
2022/04/22 12:13:20;;;;;;;6.35;4.75;;;;;;;18.86;48.79;94151.50;5020978;28;20228;-65
2022/04/22 12:15:49;;;;;;;8.15;5.13;;;;;;;18.90;47.52;94157.81;5020977;28;20199;-65
2022/04/22 12:18:29;;;;;;;6.45;4.65;;;;;;;19.10;47.99;94148.63;5037113;28;20214;-65
2022/04/22 12:20:57;;;;;;;5.13;4.60;;;;;;;19.17;47.33;94126.13;5037945;28;20195;-66
2022/04/22 12:23:34;;;;;;;5.43;4.90;;;;;;;19.28;47.25;94137.09;5020716;28;20728;-65
2022/04/22 12:26:02;;;;;;;5.40;4.50;;;;;;;19.38;46.78;94127.69;5020848;28;20244;-65
2022/04/22 12:28:30;;;;;;;7.00;4.47;;;;;;;19.47;46.90;94103.53;5037904;28;20656;-65
2022/04/22 12:31:03;;;;;;;5.88;4.50;;;;;;;19.59;45.30;94104.06;5021052;28;20191;-65
2022/04/22 12:33:34;;;;;;;4.90;4.40;;;;;;;19.60;46.42;94106.41;5020699;28;20208;-65
2022/04/22 12:36:07;;;;;;;6.53;4.60;;;;;;;19.62;45.15;94101.22;5020697;28;20695;-65
2022/04/22 12:38:36;;;;;;;8.40;4.65;;;;;;;19.48;45.29;94105.09;5037148;28;20240;-65